Anastasia — SVA6070 — position and weather

sailwx.info

Track history (hours):
 
Tides and Currents Weather Stations Pressure Air Temp Water Temp Dewpoint Dewpoint Depression Visibility Wind Speed Wind Dir Waves Ship Positions

Anastasia

Last reported at 2017-Dec-15 07:34 UTC. Time now 2017-Dec-17 17:53 UTC.
Position N 39°49' E 024°04'.

Length 82 m; draft 3 m.

Type: Cargo ship. MMSI: 239855900.

Date/timePositionNaut miles runAvg speedWind from/ knotsBaromVisibWave heightAir tempDewpointWater temp
2017-Dec-15 07:34N 39°49' E 024°04'0 7.8
2017-Dec-15 07:30N 39°50' E 024°05'4 7.8
2017-Dec-15 06:56N 39°53' E 024°09'3 7.7
2017-Dec-15 06:29N 39°55' E 024°12'4 7.5
2017-Dec-15 05:59N 39°58' E 024°15'4 7.3
2017-Dec-15 05:29N 40°01' E 024°18'5 7.3
2017-Dec-15 04:50N 40°05' E 024°22'4 7.7
2017-Dec-15 04:18N 40°08' E 024°25'2 8.1
2017-Dec-15 04:00N 40°10' E 024°27'12 8.2
2017-Dec-15 02:31N 40°20' E 024°35'12 8.1
2017-Dec-15 01:01N 40°31' E 024°44'8 8.5
2017-Dec-15 00:05N 40°37' E 024°49'27 4.8
2017-Dec-14 18:26N 41°00' E 025°07'0 0.0
2017-Dec-14 16:03N 41°00' E 025°07'0 0.0
2017-Dec-14 15:58N 41°00' E 025°07'0 0.0
2017-Dec-14 13:36N 41°00' E 025°07'0 0.1
2017-Dec-14 13:30N 41°00' E 025°07'0 0.0
2017-Dec-14 06:39N 41°00' E 025°07'0 0.0
2017-Dec-14 03:15N 41°00' E 025°07'0 0.0
2017-Dec-14 02:56N 41°00' E 025°07'0 0.0
2017-Dec-14 02:30N 41°00' E 025°07'0 0.0
2017-Dec-13 22:37N 41°00' E 025°07'0 0.0
2017-Dec-13 21:51N 41°00' E 025°07'0 0.0
2017-Dec-13 21:30N 41°00' E 025°07'0 0.0
2017-Dec-13 20:12N 41°00' E 025°07'0 0.0
2017-Dec-13 20:00N 41°00' E 025°07'0 0.0
2017-Dec-13 19:15N 41°00' E 025°07'0 0.0
2017-Dec-13 18:53N 41°00' E 025°07'0 0.0
2017-Dec-13 18:29N 41°00' E 025°07'0 0.0
2017-Dec-13 17:58N 41°00' E 025°07'0 0.0
2017-Dec-13 17:01N 41°00' E 025°07'0 0.0
2017-Dec-13 16:59N 41°00' E 025°07'0 0.0
2017-Dec-13 16:21N 41°00' E 025°07'0 0.0
2017-Dec-13 15:34N 41°00' E 025°07'0 0.0
2017-Dec-13 15:20N 41°00' E 025°07'0 0.0
2017-Dec-13 14:25N 41°00' E 025°07'0 0.0
2017-Dec-13 14:00N 41°00' E 025°07'0 0.0
2017-Dec-13 13:28N 41°00' E 025°07'0 0.0
2017-Dec-13 12:58N 41°00' E 025°07'0 0.0
2017-Dec-13 12:29N 41°00' E 025°07'0 0.0
2017-Dec-13 10:34N 41°00' E 025°07'0 0.0
2017-Dec-13 10:28N 41°00' E 025°07'0 0.0
2017-Dec-13 09:43N 41°00' E 025°07'0 0.0
2017-Dec-13 09:29N 41°00' E 025°07'0 0.1
2017-Dec-13 08:54N 41°00' E 025°07'3 6.0
2017-Dec-13 08:22N 40°57' E 025°06'5 8.6
2017-Dec-13 07:47N 40°52' E 025°05'2 8.5
2017-Dec-13 07:30N 40°50' E 025°05'5 8.4
2017-Dec-13 06:56N 40°45' E 025°04'4 8.5
2017-Dec-13 06:28N 40°41' E 025°03'4 8.2
2017-Dec-13 05:56N 40°37' E 025°02'4 8.7
2017-Dec-13 05:28N 40°33' E 025°02'4 8.7
2017-Dec-13 05:00N 40°29' E 025°01'4 8.8
2017-Dec-13 04:30N 40°25' E 025°00'5 9.0
2017-Dec-13 03:57N 40°20' E 024°59'4 9.3
2017-Dec-13 03:30N 40°16' E 024°59'5 9.3
2017-Dec-13 02:59N 40°11' E 024°58'5 8.9
2017-Dec-13 02:27N 40°06' E 024°57'4 9.1
2017-Dec-13 01:58N 40°02' E 024°56'15 8.9
2017-Dec-13 00:14N 39°47' E 024°54'16 8.8
2017-Dec-12 22:28N 39°31' E 024°51'88 8.5
2017-Dec-12 12:12N 38°04' E 024°37'11 8.5
2017-Dec-12 10:56N 37°54' E 024°32'4 8.4
2017-Dec-12 10:30N 37°51' E 024°30'4 8.6
2017-Dec-12 10:00N 37°47' E 024°28'6 8.0
2017-Dec-12 09:15N 37°41' E 024°28'2 8.6
2017-Dec-12 08:59N 37°39' E 024°29'4 8.7
2017-Dec-12 08:30N 37°35' E 024°31'4 8.6
2017-Dec-12 08:00N 37°31' E 024°33'4 8.3
2017-Dec-12 07:30N 37°27' E 024°34'4 8.6
2017-Dec-12 07:00N 37°22' E 024°34'4 8.6
2017-Dec-12 06:30N 37°18' E 024°34'4 8.5
2017-Dec-12 06:00N 37°14' E 024°34'4 8.7
2017-Dec-12 05:30N 37°10' E 024°35'4 8.6
2017-Dec-12 05:00N 37°05' E 024°35'4 8.7
2017-Dec-12 04:30N 37°01' E 024°36'4 8.4
2017-Dec-12 04:00N 36°57' E 024°37'4 8.4
2017-Dec-12 03:30N 36°53' E 024°37'4 8.4
2017-Dec-12 03:00N 36°48' E 024°37'4 8.5
2017-Dec-12 02:30N 36°44' E 024°35'4 8.6
2017-Dec-12 02:01N 36°40' E 024°34'4 8.7
2017-Dec-12 01:30N 36°36' E 024°32'4 8.7
2017-Dec-12 01:00N 36°32' E 024°31'4 8.8
2017-Dec-12 00:30N 36°28' E 024°29'4 9.0
2017-Dec-12 00:00N 36°24' E 024°27'5 8.9
2017-Dec-11 23:30N 36°19' E 024°26'4 8.8
2017-Dec-11 23:00N 36°15' E 024°24'4 8.6
2017-Dec-11 22:30N 36°11' E 024°23'4 8.4
2017-Dec-11 22:00N 36°07' E 024°22'4 8.6
2017-Dec-11 21:30N 36°03' E 024°21'4 8.7
2017-Dec-11 21:00N 35°58' E 024°19'4 8.6
2017-Dec-11 20:30N 35°54' E 024°18'25 8.0
2017-Dec-11 17:20N 35°29' E 024°11'  
2017-Dec-07 21:08N 35°29' E 024°10'43 7.5
2017-Dec-07 15:23N 36°12' E 024°15'3 8.1
2017-Dec-07 15:00N 36°15' E 024°15'4 8.0
2017-Dec-07 14:30N 36°19' E 024°15'4 8.0
2017-Dec-07 14:00N 36°23' E 024°16'4 7.9
2017-Dec-07 13:30N 36°27' E 024°16'4 7.9
2017-Dec-07 13:00N 36°31' E 024°16'4 7.7
2017-Dec-07 12:30N 36°35' E 024°16'4 7.9
2017-Dec-07 12:00N 36°39' E 024°16'4 8.2
2017-Dec-07 11:30N 36°43' E 024°17'5 8.0
2017-Dec-07 10:54N 36°48' E 024°17'3 8.0
2017-Dec-07 10:30N 36°51' E 024°17'4 8.1
2017-Dec-07 10:00N 36°55' E 024°17'4 8.1
2017-Dec-07 09:30N 36°59' E 024°16'4 8.0
2017-Dec-07 09:00N 37°03' E 024°16'4 7.9
2017-Dec-07 08:30N 37°07' E 024°16'4 7.7
2017-Dec-07 07:59N 37°11' E 024°16'4 7.7
2017-Dec-07 07:30N 37°15' E 024°15'4 7.9
2017-Dec-07 07:00N 37°19' E 024°15'4 7.7
2017-Dec-07 06:30N 37°22' E 024°15'4 8.0
2017-Dec-07 06:00N 37°26' E 024°14'4 8.2
2017-Dec-07 05:30N 37°31' E 024°14'4 7.9
2017-Dec-07 05:00N 37°35' E 024°14'4 7.5
2017-Dec-07 04:30N 37°38' E 024°14'4 7.9
2017-Dec-07 03:58N 37°42' E 024°13'4 7.9
2017-Dec-07 03:30N 37°46' E 024°13'4 7.8
2017-Dec-07 03:00N 37°50' E 024°13'18 7.7
2017-Dec-07 00:40N 38°08' E 024°09'19 7.6
2017-Dec-06 22:08N 38°20' E 023°51'2 7.9
2017-Dec-06 21:56N 38°21' E 023°49'  
Track history (hours):
 
Tides and Currents Weather Stations Pressure Air Temp Water Temp Dewpoint Dewpoint Depression Visibility Wind Speed Wind Dir Waves Ship Positions

Anastasia

Last reported at 2017-Dec-15 07:34 UTC. Time now 2017-Dec-17 17:53 UTC.
Position N 39°49' E 024°04'.

Length 82 m; draft 3 m.

Type: Cargo ship. MMSI: 239855900.

Date/timePositionNaut miles runAvg speedWind from/ knotsBaromVisibWave heightAir tempDewpointWater temp
2017-Dec-15 07:34N 39°49' E 024°04'0 7.8
2017-Dec-15 07:30N 39°50' E 024°05'4 7.8
2017-Dec-15 06:56N 39°53' E 024°09'3 7.7
2017-Dec-15 06:29N 39°55' E 024°12'4 7.5
2017-Dec-15 05:59N 39°58' E 024°15'4 7.3
2017-Dec-15 05:29N 40°01' E 024°18'5 7.3
2017-Dec-15 04:50N 40°05' E 024°22'4 7.7
2017-Dec-15 04:18N 40°08' E 024°25'2 8.1
2017-Dec-15 04:00N 40°10' E 024°27'12 8.2
2017-Dec-15 02:31N 40°20' E 024°35'12 8.1
2017-Dec-15 01:01N 40°31' E 024°44'8 8.5
2017-Dec-15 00:05N 40°37' E 024°49'27 4.8
2017-Dec-14 18:26N 41°00' E 025°07'0 0.0
2017-Dec-14 16:03N 41°00' E 025°07'0 0.0
2017-Dec-14 15:58N 41°00' E 025°07'0 0.0
2017-Dec-14 13:36N 41°00' E 025°07'0 0.1
2017-Dec-14 13:30N 41°00' E 025°07'0 0.0
2017-Dec-14 06:39N 41°00' E 025°07'0 0.0
2017-Dec-14 03:15N 41°00' E 025°07'0 0.0
2017-Dec-14 02:56N 41°00' E 025°07'0 0.0
2017-Dec-14 02:30N 41°00' E 025°07'0 0.0
2017-Dec-13 22:37N 41°00' E 025°07'0 0.0
2017-Dec-13 21:51N 41°00' E 025°07'0 0.0
2017-Dec-13 21:30N 41°00' E 025°07'0 0.0
2017-Dec-13 20:12N 41°00' E 025°07'0 0.0
2017-Dec-13 20:00N 41°00' E 025°07'0 0.0
2017-Dec-13 19:15N 41°00' E 025°07'0 0.0
2017-Dec-13 18:53N 41°00' E 025°07'0 0.0
2017-Dec-13 18:29N 41°00' E 025°07'0 0.0
2017-Dec-13 17:58N 41°00' E 025°07'0 0.0
2017-Dec-13 17:01N 41°00' E 025°07'0 0.0
2017-Dec-13 16:59N 41°00' E 025°07'0 0.0
2017-Dec-13 16:21N 41°00' E 025°07'0 0.0
2017-Dec-13 15:34N 41°00' E 025°07'0 0.0
2017-Dec-13 15:20N 41°00' E 025°07'0 0.0
2017-Dec-13 14:25N 41°00' E 025°07'0 0.0
2017-Dec-13 14:00N 41°00' E 025°07'0 0.0
2017-Dec-13 13:28N 41°00' E 025°07'0 0.0
2017-Dec-13 12:58N 41°00' E 025°07'0 0.0
2017-Dec-13 12:29N 41°00' E 025°07'0 0.0
2017-Dec-13 10:34N 41°00' E 025°07'0 0.0
2017-Dec-13 10:28N 41°00' E 025°07'0 0.0
2017-Dec-13 09:43N 41°00' E 025°07'0 0.0
2017-Dec-13 09:29N 41°00' E 025°07'0 0.1
2017-Dec-13 08:54N 41°00' E 025°07'3 6.0
2017-Dec-13 08:22N 40°57' E 025°06'5 8.6
2017-Dec-13 07:47N 40°52' E 025°05'2 8.5
2017-Dec-13 07:30N 40°50' E 025°05'5 8.4
2017-Dec-13 06:56N 40°45' E 025°04'4 8.5
2017-Dec-13 06:28N 40°41' E 025°03'4 8.2
2017-Dec-13 05:56N 40°37' E 025°02'4 8.7
2017-Dec-13 05:28N 40°33' E 025°02'4 8.7
2017-Dec-13 05:00N 40°29' E 025°01'4 8.8
2017-Dec-13 04:30N 40°25' E 025°00'5 9.0
2017-Dec-13 03:57N 40°20' E 024°59'4 9.3
2017-Dec-13 03:30N 40°16' E 024°59'5 9.3
2017-Dec-13 02:59N 40°11' E 024°58'5 8.9
2017-Dec-13 02:27N 40°06' E 024°57'4 9.1
2017-Dec-13 01:58N 40°02' E 024°56'15 8.9
2017-Dec-13 00:14N 39°47' E 024°54'16 8.8
2017-Dec-12 22:28N 39°31' E 024°51'88 8.5
2017-Dec-12 12:12N 38°04' E 024°37'11 8.5
2017-Dec-12 10:56N 37°54' E 024°32'4 8.4
2017-Dec-12 10:30N 37°51' E 024°30'4 8.6
2017-Dec-12 10:00N 37°47' E 024°28'6 8.0
2017-Dec-12 09:15N 37°41' E 024°28'2 8.6
2017-Dec-12 08:59N 37°39' E 024°29'4 8.7
2017-Dec-12 08:30N 37°35' E 024°31'4 8.6
2017-Dec-12 08:00N 37°31' E 024°33'4 8.3
2017-Dec-12 07:30N 37°27' E 024°34'4 8.6
2017-Dec-12 07:00N 37°22' E 024°34'4 8.6
2017-Dec-12 06:30N 37°18' E 024°34'4 8.5
2017-Dec-12 06:00N 37°14' E 024°34'4 8.7
2017-Dec-12 05:30N 37°10' E 024°35'4 8.6
2017-Dec-12 05:00N 37°05' E 024°35'4 8.7
2017-Dec-12 04:30N 37°01' E 024°36'4 8.4
2017-Dec-12 04:00N 36°57' E 024°37'4 8.4
2017-Dec-12 03:30N 36°53' E 024°37'4 8.4
2017-Dec-12 03:00N 36°48' E 024°37'4 8.5
2017-Dec-12 02:30N 36°44' E 024°35'4 8.6
2017-Dec-12 02:01N 36°40' E 024°34'4 8.7
2017-Dec-12 01:30N 36°36' E 024°32'4 8.7
2017-Dec-12 01:00N 36°32' E 024°31'4 8.8
2017-Dec-12 00:30N 36°28' E 024°29'4 9.0
2017-Dec-12 00:00N 36°24' E 024°27'5 8.9
2017-Dec-11 23:30N 36°19' E 024°26'4 8.8
2017-Dec-11 23:00N 36°15' E 024°24'4 8.6
2017-Dec-11 22:30N 36°11' E 024°23'4 8.4
2017-Dec-11 22:00N 36°07' E 024°22'4 8.6
2017-Dec-11 21:30N 36°03' E 024°21'4 8.7
2017-Dec-11 21:00N 35°58' E 024°19'4 8.6
2017-Dec-11 20:30N 35°54' E 024°18'25 8.0
2017-Dec-11 17:20N 35°29' E 024°11'  
2017-Dec-07 21:08N 35°29' E 024°10'43 7.5
2017-Dec-07 15:23N 36°12' E 024°15'3 8.1
2017-Dec-07 15:00N 36°15' E 024°15'4 8.0
2017-Dec-07 14:30N 36°19' E 024°15'4 8.0
2017-Dec-07 14:00N 36°23' E 024°16'4 7.9
2017-Dec-07 13:30N 36°27' E 024°16'4 7.9
2017-Dec-07 13:00N 36°31' E 024°16'4 7.7
2017-Dec-07 12:30N 36°35' E 024°16'4 7.9
2017-Dec-07 12:00N 36°39' E 024°16'4 8.2
2017-Dec-07 11:30N 36°43' E 024°17'5 8.0
2017-Dec-07 10:54N 36°48' E 024°17'3 8.0
2017-Dec-07 10:30N 36°51' E 024°17'4 8.1
2017-Dec-07 10:00N 36°55' E 024°17'4 8.1
2017-Dec-07 09:30N 36°59' E 024°16'4 8.0
2017-Dec-07 09:00N 37°03' E 024°16'4 7.9
2017-Dec-07 08:30N 37°07' E 024°16'4 7.7
2017-Dec-07 07:59N 37°11' E 024°16'4 7.7
2017-Dec-07 07:30N 37°15' E 024°15'4 7.9
2017-Dec-07 07:00N 37°19' E 024°15'4 7.7
2017-Dec-07 06:30N 37°22' E 024°15'4 8.0
2017-Dec-07 06:00N 37°26' E 024°14'4 8.2
2017-Dec-07 05:30N 37°31' E 024°14'4 7.9
2017-Dec-07 05:00N 37°35' E 024°14'4 7.5
2017-Dec-07 04:30N 37°38' E 024°14'4 7.9
2017-Dec-07 03:58N 37°42' E 024°13'4 7.9
2017-Dec-07 03:30N 37°46' E 024°13'4 7.8
2017-Dec-07 03:00N 37°50' E 024°13'18 7.7
2017-Dec-07 00:40N 38°08' E 024°09'19 7.6
2017-Dec-06 22:08N 38°20' E 023°51'2 7.9
2017-Dec-06 21:56N 38°21' E 023°49'  

Dump ship's entire track history